05TS weather

Dew Drop Airport
Justin, Texas, United States

Public forecast

Using degrees Fahrenheit for public forecast. Weather courtesy of forecast.io.

Closest aviation weather report (METAR) to Dew Drop Airport

Closest report is Fort Worth Alliance Airport, 8.7 nm (16.2 km) SSE. Retrieved 2020/08/05 23:53 UTC (1 hour ago):

KAFW 052353Z 06009KT 10SM SCT150 BKN250 31/22 A2991 RMK AO2 SLP112 60000 T03110217 10317 20272 56017

Closest aviation forecast (TAF) to Dew Drop Airport

Closest forecast is Fort Worth Alliance Airport, 8.7 nm (16.2 km) SSE. Retrieved 2020-08-06 00:36 UTC (22 minutes ago):

TAF KAFW 052333Z 0600/0624 12006KT P6SM SCT120 FM061500 17010KT P6SM SCT100